sensor_id;sensor_type;location;lat;lon;timestamp;temperature;humidity
1383;DHT22;685;47.196;11.880;2023-04-25T00:00:29;8.90;99.90
1383;DHT22;685;47.196;11.880;2023-04-25T00:02:57;9.00;99.90
1383;DHT22;685;47.196;11.880;2023-04-25T00:05:25;9.00;99.90
1383;DHT22;685;47.196;11.880;2023-04-25T00:07:52;8.70;99.90
1383;DHT22;685;47.196;11.880;2023-04-25T00:10:19;8.40;99.90
1383;DHT22;685;47.196;11.880;2023-04-25T00:12:46;8.30;99.90
1383;DHT22;685;47.196;11.880;2023-04-25T00:15:14;8.40;99.90
1383;DHT22;685;47.196;11.880;2023-04-25T00:17:41;8.50;99.90
1383;DHT22;685;47.196;11.880;2023-04-25T00:20:11;8.40;99.90
1383;DHT22;685;47.196;11.880;2023-04-25T00:22:38;8.60;99.90
1383;DHT22;685;47.196;11.880;2023-04-25T00:25:05;8.60;99.90
1383;DHT22;685;47.196;11.880;2023-04-25T00:27:32;8.60;99.90
1383;DHT22;685;47.196;11.880;2023-04-25T00:29:59;8.60;99.90
1383;DHT22;685;47.196;11.880;2023-04-25T00:32:26;8.70;99.90
1383;DHT22;685;47.196;11.880;2023-04-25T00:34:53;8.60;99.90
1383;DHT22;685;47.196;11.880;2023-04-25T00:37:22;8.60;99.90
1383;DHT22;685;47.196;11.880;2023-04-25T00:39:49;8.60;99.90
1383;DHT22;685;47.196;11.880;2023-04-25T00:42:16;8.50;99.90
1383;DHT22;685;47.196;11.880;2023-04-25T00:44:45;8.60;99.90
1383;DHT22;685;47.196;11.880;2023-04-25T00:47:12;8.60;99.90
1383;DHT22;685;47.196;11.880;2023-04-25T00:49:39;8.60;99.90
1383;DHT22;685;47.196;11.880;2023-04-25T00:52:06;8.50;99.90
1383;DHT22;685;47.196;11.880;2023-04-25T00:54:34;8.40;99.90
1383;DHT22;685;47.196;11.880;2023-04-25T00:57:02;8.20;99.90
1383;DHT22;685;47.196;11.880;2023-04-25T00:59:29;8.10;99.90
1383;DHT22;685;47.196;11.880;2023-04-25T01:01:57;8.20;99.90
1383;DHT22;685;47.196;11.880;2023-04-25T01:04:25;8.40;99.90
1383;DHT22;685;47.196;11.880;2023-04-25T01:06:53;8.40;99.90
1383;DHT22;685;47.196;11.880;2023-04-25T01:09:21;8.50;99.90
1383;DHT22;685;47.196;11.880;2023-04-25T01:11:50;8.30;99.90
1383;DHT22;685;47.196;11.880;2023-04-25T01:14:17;8.30;99.90
1383;DHT22;685;47.196;11.880;2023-04-25T01:16:44;8.40;99.90
1383;DHT22;685;47.196;11.880;2023-04-25T01:19:11;8.50;99.90
1383;DHT22;685;47.196;11.880;2023-04-25T01:21:40;8.40;99.90
1383;DHT22;685;47.196;11.880;2023-04-25T01:24:07;8.50;99.90
1383;DHT22;685;47.196;11.880;2023-04-25T01:26:35;8.50;99.90
1383;DHT22;685;47.196;11.880;2023-04-25T01:29:03;8.50;99.90
1383;DHT22;685;47.196;11.880;2023-04-25T01:31:31;8.40;99.90
1383;DHT22;685;47.196;11.880;2023-04-25T01:34:00;8.30;99.90
1383;DHT22;685;47.196;11.880;2023-04-25T01:36:27;8.40;99.90
1383;DHT22;685;47.196;11.880;2023-04-25T01:38:56;8.50;99.90
1383;DHT22;685;47.196;11.880;2023-04-25T01:41:23;8.40;99.90
1383;DHT22;685;47.196;11.880;2023-04-25T01:43:50;8.20;99.90
1383;DHT22;685;47.196;11.880;2023-04-25T01:46:17;8.30;99.90
1383;DHT22;685;47.196;11.880;2023-04-25T01:48:44;8.40;99.90
1383;DHT22;685;47.196;11.880;2023-04-25T01:51:11;8.50;99.90
1383;DHT22;685;47.196;11.880;2023-04-25T01:53:38;8.40;99.90
1383;DHT22;685;47.196;11.880;2023-04-25T01:56:07;8.20;99.90
1383;DHT22;685;47.196;11.880;2023-04-25T01:58:34;8.10;99.90
1383;DHT22;685;47.196;11.880;2023-04-25T02:01:01;8.10;99.90
1383;DHT22;685;47.196;11.880;2023-04-25T02:03:28;8.30;99.90
1383;DHT22;685;47.196;11.880;2023-04-25T02:05:55;8.30;99.90
1383;DHT22;685;47.196;11.880;2023-04-25T02:08:22;8.40;99.90
1383;DHT22;685;47.196;11.880;2023-04-25T02:10:51;8.50;99.90
1383;DHT22;685;47.196;11.880;2023-04-25T02:13:19;8.50;99.90
1383;DHT22;685;47.196;11.880;2023-04-25T02:15:46;8.60;99.90
1383;DHT22;685;47.196;11.880;2023-04-25T02:18:13;8.00;99.90
1383;DHT22;685;47.196;11.880;2023-04-25T02:20:41;7.80;99.90
1383;DHT22;685;47.196;11.880;2023-04-25T02:23:08;8.00;99.90
1383;DHT22;685;47.196;11.880;2023-04-25T02:25:35;8.30;99.90
1383;DHT22;685;47.196;11.880;2023-04-25T02:28:02;8.40;99.90
1383;DHT22;685;47.196;11.880;2023-04-25T02:30:30;8.50;99.90
1383;DHT22;685;47.196;11.880;2023-04-25T02:32:57;8.50;99.90
1383;DHT22;685;47.196;11.880;2023-04-25T02:35:24;8.50;99.90
1383;DHT22;685;47.196;11.880;2023-04-25T02:37:51;8.40;99.90
1383;DHT22;685;47.196;11.880;2023-04-25T02:40:18;8.50;99.90
1383;DHT22;685;47.196;11.880;2023-04-25T02:42:45;8.50;99.90
1383;DHT22;685;47.196;11.880;2023-04-25T02:45:12;8.50;99.90
1383;DHT22;685;47.196;11.880;2023-04-25T02:47:41;8.70;99.90
1383;DHT22;685;47.196;11.880;2023-04-25T02:50:08;8.70;99.90
1383;DHT22;685;47.196;11.880;2023-04-25T02:52:35;8.50;99.90
1383;DHT22;685;47.196;11.880;2023-04-25T02:55:02;8.50;99.90
1383;DHT22;685;47.196;11.880;2023-04-25T02:57:29;8.40;99.90
1383;DHT22;685;47.196;11.880;2023-04-25T02:59:56;8.40;99.90
1383;DHT22;685;47.196;11.880;2023-04-25T03:02:22;8.30;99.90
1383;DHT22;685;47.196;11.880;2023-04-25T03:04:51;8.20;99.90
1383;DHT22;685;47.196;11.880;2023-04-25T03:07:18;8.40;99.90
1383;DHT22;685;47.196;11.880;2023-04-25T03:09:45;8.40;99.90
1383;DHT22;685;47.196;11.880;2023-04-25T03:12:11;8.40;99.90
1383;DHT22;685;47.196;11.880;2023-04-25T03:14:38;8.50;99.90
1383;DHT22;685;47.196;11.880;2023-04-25T03:17:05;8.40;99.90
1383;DHT22;685;47.196;11.880;2023-04-25T03:19:32;8.00;99.90
1383;DHT22;685;47.196;11.880;2023-04-25T03:22:00;8.10;99.90
1383;DHT22;685;47.196;11.880;2023-04-25T03:24:27;8.30;99.90
1383;DHT22;685;47.196;11.880;2023-04-25T03:26:54;8.30;99.90
1383;DHT22;685;47.196;11.880;2023-04-25T03:29:21;8.30;99.90
1383;DHT22;685;47.196;11.880;2023-04-25T03:31:51;8.20;99.90
1383;DHT22;685;47.196;11.880;2023-04-25T03:34:18;8.10;99.90
1383;DHT22;685;47.196;11.880;2023-04-25T03:36:47;8.10;99.90
1383;DHT22;685;47.196;11.880;2023-04-25T03:39:15;8.00;99.90
1383;DHT22;685;47.196;11.880;2023-04-25T03:41:42;8.20;99.90
1383;DHT22;685;47.196;11.880;2023-04-25T03:44:09;8.10;99.90
1383;DHT22;685;47.196;11.880;2023-04-25T03:46:36;8.20;99.90
1383;DHT22;685;47.196;11.880;2023-04-25T03:49:03;7.80;99.90
1383;DHT22;685;47.196;11.880;2023-04-25T03:51:30;7.90;99.90
1383;DHT22;685;47.196;11.880;2023-04-25T03:53:57;8.00;99.90
1383;DHT22;685;47.196;11.880;2023-04-25T03:56:26;8.10;99.90
1383;DHT22;685;47.196;11.880;2023-04-25T03:58:53;8.20;99.90
1383;DHT22;685;47.196;11.880;2023-04-25T04:01:20;8.20;99.90
1383;DHT22;685;47.196;11.880;2023-04-25T04:03:47;8.20;99.90
1383;DHT22;685;47.196;11.880;2023-04-25T04:06:13;8.20;99.90
1383;DHT22;685;47.196;11.880;2023-04-25T04:08:40;8.20;99.90
1383;DHT22;685;47.196;11.880;2023-04-25T04:11:07;8.10;99.90
1383;DHT22;685;47.196;11.880;2023-04-25T04:13:36;7.90;99.90
1383;DHT22;685;47.196;11.880;2023-04-25T04:16:03;7.90;99.90
1383;DHT22;685;47.196;11.880;2023-04-25T04:18:30;7.90;99.90
1383;DHT22;685;47.196;11.880;2023-04-25T04:20:58;7.80;99.90
1383;DHT22;685;47.196;11.880;2023-04-25T04:23:25;7.90;99.90
1383;DHT22;685;47.196;11.880;2023-04-25T04:25:53;7.70;99.90
1383;DHT22;685;47.196;11.880;2023-04-25T04:28:20;7.90;99.90
1383;DHT22;685;47.196;11.880;2023-04-25T04:30:49;8.20;99.90
1383;DHT22;685;47.196;11.880;2023-04-25T04:33:16;8.30;99.90
1383;DHT22;685;47.196;11.880;2023-04-25T04:35:45;8.30;99.90
1383;DHT22;685;47.196;11.880;2023-04-25T04:38:14;8.30;99.90
1383;DHT22;685;47.196;11.880;2023-04-25T04:40:41;8.40;99.90
1383;DHT22;685;47.196;11.880;2023-04-25T04:43:08;8.20;99.90
1383;DHT22;685;47.196;11.880;2023-04-25T04:45:36;8.10;99.90
1383;DHT22;685;47.196;11.880;2023-04-25T04:48:05;8.20;99.90
1383;DHT22;685;47.196;11.880;2023-04-25T04:50:32;8.20;99.90
1383;DHT22;685;47.196;11.880;2023-04-25T04:53:01;8.00;99.90
1383;DHT22;685;47.196;11.880;2023-04-25T04:55:28;8.10;99.90
1383;DHT22;685;47.196;11.880;2023-04-25T04:57:55;8.10;99.90
1383;DHT22;685;47.196;11.880;2023-04-25T05:00:22;8.20;99.90
1383;DHT22;685;47.196;11.880;2023-04-25T05:02:49;8.20;99.90
1383;DHT22;685;47.196;11.880;2023-04-25T05:05:17;8.00;99.90
1383;DHT22;685;47.196;11.880;2023-04-25T05:07:44;8.10;99.90
1383;DHT22;685;47.196;11.880;2023-04-25T05:10:11;8.20;99.90
1383;DHT22;685;47.196;11.880;2023-04-25T05:12:38;8.30;99.90
1383;DHT22;685;47.196;11.880;2023-04-25T05:15:06;8.30;99.90
1383;DHT22;685;47.196;11.880;2023-04-25T05:17:33;8.30;99.90
1383;DHT22;685;47.196;11.880;2023-04-25T05:20:00;8.40;99.90
1383;DHT22;685;47.196;11.880;2023-04-25T05:22:29;8.40;99.90
1383;DHT22;685;47.196;11.880;2023-04-25T05:24:56;8.30;99.90
1383;DHT22;685;47.196;11.880;2023-04-25T05:27:24;8.40;99.90
1383;DHT22;685;47.196;11.880;2023-04-25T05:29:51;8.40;99.90
1383;DHT22;685;47.196;11.880;2023-04-25T05:32:18;8.40;99.90
1383;DHT22;685;47.196;11.880;2023-04-25T05:34:45;8.20;99.90
1383;DHT22;685;47.196;11.880;2023-04-25T05:37:12;8.20;99.90
1383;DHT22;685;47.196;11.880;2023-04-25T05:39:40;8.30;99.90
1383;DHT22;685;47.196;11.880;2023-04-25T05:42:07;8.30;99.90
1383;DHT22;685;47.196;11.880;2023-04-25T05:44:34;8.40;99.90
1383;DHT22;685;47.196;11.880;2023-04-25T05:47:01;8.50;99.90
1383;DHT22;685;47.196;11.880;2023-04-25T05:49:30;8.40;99.90
1383;DHT22;685;47.196;11.880;2023-04-25T05:51:56;8.50;99.90
1383;DHT22;685;47.196;11.880;2023-04-25T05:54:23;8.40;99.90
1383;DHT22;685;47.196;11.880;2023-04-25T05:56:52;8.50;99.90
1383;DHT22;685;47.196;11.880;2023-04-25T05:59:18;8.50;99.90
1383;DHT22;685;47.196;11.880;2023-04-25T06:01:45;8.40;99.90
1383;DHT22;685;47.196;11.880;2023-04-25T06:04:13;8.40;99.90
1383;DHT22;685;47.196;11.880;2023-04-25T06:06:40;8.50;99.90
1383;DHT22;685;47.196;11.880;2023-04-25T06:09:07;8.40;99.90
1383;DHT22;685;47.196;11.880;2023-04-25T06:11:33;8.40;99.90
1383;DHT22;685;47.196;11.880;2023-04-25T06:14:02;8.40;99.90
1383;DHT22;685;47.196;11.880;2023-04-25T06:16:29;8.40;99.90
1383;DHT22;685;47.196;11.880;2023-04-25T06:18:56;8.60;99.90
1383;DHT22;685;47.196;11.880;2023-04-25T06:21:22;8.60;99.90
1383;DHT22;685;47.196;11.880;2023-04-25T06:23:49;8.60;99.90
1383;DHT22;685;47.196;11.880;2023-04-25T06:26:16;8.50;99.90
1383;DHT22;685;47.196;11.880;2023-04-25T06:28:43;8.50;99.90
1383;DHT22;685;47.196;11.880;2023-04-25T06:31:11;8.40;99.90
1383;DHT22;685;47.196;11.880;2023-04-25T06:33:38;8.40;99.90
1383;DHT22;685;47.196;11.880;2023-04-25T06:36:05;8.20;99.90
1383;DHT22;685;47.196;11.880;2023-04-25T06:38:32;8.00;99.90
1383;DHT22;685;47.196;11.880;2023-04-25T06:41:00;7.80;99.90
1383;DHT22;685;47.196;11.880;2023-04-25T06:43:27;7.90;99.90
1383;DHT22;685;47.196;11.880;2023-04-25T06:45:54;8.00;99.90
1383;DHT22;685;47.196;11.880;2023-04-25T06:48:22;8.10;99.90
1383;DHT22;685;47.196;11.880;2023-04-25T06:50:49;8.40;99.90
1383;DHT22;685;47.196;11.880;2023-04-25T06:53:16;8.50;99.90
1383;DHT22;685;47.196;11.880;2023-04-25T06:55:44;8.50;99.90
1383;DHT22;685;47.196;11.880;2023-04-25T06:58:11;8.70;99.90
1383;DHT22;685;47.196;11.880;2023-04-25T07:00:37;8.80;99.90
1383;DHT22;685;47.196;11.880;2023-04-25T07:03:04;8.90;99.90
1383;DHT22;685;47.196;11.880;2023-04-25T07:05:32;9.00;99.90
1383;DHT22;685;47.196;11.880;2023-04-25T07:07:59;8.60;99.90
1383;DHT22;685;47.196;11.880;2023-04-25T07:10:26;8.40;99.90
1383;DHT22;685;47.196;11.880;2023-04-25T07:12:53;8.40;99.90
1383;DHT22;685;47.196;11.880;2023-04-25T07:15:20;8.40;99.90
1383;DHT22;685;47.196;11.880;2023-04-25T07:17:47;8.50;99.90
1383;DHT22;685;47.196;11.880;2023-04-25T07:20:14;8.60;99.90
1383;DHT22;685;47.196;11.880;2023-04-25T07:22:43;8.70;99.90
1383;DHT22;685;47.196;11.880;2023-04-25T07:25:10;8.80;99.90
1383;DHT22;685;47.196;11.880;2023-04-25T07:27:36;8.90;99.90
1383;DHT22;685;47.196;11.880;2023-04-25T07:30:05;9.00;99.90
1383;DHT22;685;47.196;11.880;2023-04-25T07:32:32;8.90;99.90
1383;DHT22;685;47.196;11.880;2023-04-25T07:34:59;9.10;99.90
1383;DHT22;685;47.196;11.880;2023-04-25T07:37:27;9.10;99.90
1383;DHT22;685;47.196;11.880;2023-04-25T07:39:55;9.20;99.90
1383;DHT22;685;47.196;11.880;2023-04-25T07:42:22;9.30;99.90
1383;DHT22;685;47.196;11.880;2023-04-25T07:44:49;9.10;99.90
1383;DHT22;685;47.196;11.880;2023-04-25T07:47:17;9.00;99.90
1383;DHT22;685;47.196;11.880;2023-04-25T07:49:45;9.00;99.90
1383;DHT22;685;47.196;11.880;2023-04-25T07:52:12;9.00;99.90
1383;DHT22;685;47.196;11.880;2023-04-25T07:54:39;9.10;99.90
1383;DHT22;685;47.196;11.880;2023-04-25T07:57:08;9.10;99.90
1383;DHT22;685;47.196;11.880;2023-04-25T07:59:35;9.10;99.90
1383;DHT22;685;47.196;11.880;2023-04-25T08:02:02;9.20;99.90
1383;DHT22;685;47.196;11.880;2023-04-25T08:04:29;9.10;99.90
1383;DHT22;685;47.196;11.880;2023-04-25T08:06:56;9.10;99.90
1383;DHT22;685;47.196;11.880;2023-04-25T08:09:22;9.20;99.90
1383;DHT22;685;47.196;11.880;2023-04-25T08:11:50;9.10;99.90
1383;DHT22;685;47.196;11.880;2023-04-25T08:14:18;9.10;99.90
1383;DHT22;685;47.196;11.880;2023-04-25T08:16:45;9.00;99.90
1383;DHT22;685;47.196;11.880;2023-04-25T08:19:12;8.80;99.90
1383;DHT22;685;47.196;11.880;2023-04-25T08:21:39;8.40;99.90
1383;DHT22;685;47.196;11.880;2023-04-25T08:24:06;8.40;99.90
1383;DHT22;685;47.196;11.880;2023-04-25T08:26:33;8.50;99.90
1383;DHT22;685;47.196;11.880;2023-04-25T08:29:02;8.20;99.90
1383;DHT22;685;47.196;11.880;2023-04-25T08:31:31;8.20;99.90
1383;DHT22;685;47.196;11.880;2023-04-25T08:33:58;8.10;99.90
1383;DHT22;685;47.196;11.880;2023-04-25T08:36:25;8.10;99.90
1383;DHT22;685;47.196;11.880;2023-04-25T08:38:53;8.20;99.90
1383;DHT22;685;47.196;11.880;2023-04-25T08:41:21;8.20;99.90
1383;DHT22;685;47.196;11.880;2023-04-25T08:43:48;8.20;99.90
1383;DHT22;685;47.196;11.880;2023-04-25T08:46:17;8.20;99.90
1383;DHT22;685;47.196;11.880;2023-04-25T08:48:46;8.30;99.90
1383;DHT22;685;47.196;11.880;2023-04-25T08:51:17;8.30;99.90
1383;DHT22;685;47.196;11.880;2023-04-25T08:53:49;8.40;99.90
1383;DHT22;685;47.196;11.880;2023-04-25T08:56:17;8.30;99.90
1383;DHT22;685;47.196;11.880;2023-04-25T08:58:47;8.30;99.90
1383;DHT22;685;47.196;11.880;2023-04-25T09:01:14;8.20;99.90
1383;DHT22;685;47.196;11.880;2023-04-25T09:03:42;8.30;99.90
1383;DHT22;685;47.196;11.880;2023-04-25T09:06:11;8.40;99.90
1383;DHT22;685;47.196;11.880;2023-04-25T09:08:39;8.50;99.90
1383;DHT22;685;47.196;11.880;2023-04-25T09:11:06;8.70;99.90
1383;DHT22;685;47.196;11.880;2023-04-25T09:13:33;8.90;99.90
1383;DHT22;685;47.196;11.880;2023-04-25T09:16:00;9.20;99.90
1383;DHT22;685;47.196;11.880;2023-04-25T09:18:29;9.30;99.90
1383;DHT22;685;47.196;11.880;2023-04-25T09:21:04;9.30;99.90
1383;DHT22;685;47.196;11.880;2023-04-25T09:23:39;9.50;99.90
1383;DHT22;685;47.196;11.880;2023-04-25T09:26:07;9.70;99.90
1383;DHT22;685;47.196;11.880;2023-04-25T09:28:34;9.70;99.90
1383;DHT22;685;47.196;11.880;2023-04-25T09:31:03;9.90;99.90
1383;DHT22;685;47.196;11.880;2023-04-25T09:33:31;9.70;99.90
1383;DHT22;685;47.196;11.880;2023-04-25T09:36:03;9.70;99.90
1383;DHT22;685;47.196;11.880;2023-04-25T09:38:30;9.70;99.90
1383;DHT22;685;47.196;11.880;2023-04-25T09:40:59;9.90;99.90
1383;DHT22;685;47.196;11.880;2023-04-25T09:43:27;10.00;99.90
1383;DHT22;685;47.196;11.880;2023-04-25T09:45:55;10.10;99.90
1383;DHT22;685;47.196;11.880;2023-04-25T09:48:26;10.10;99.90
1383;DHT22;685;47.196;11.880;2023-04-25T09:51:07;10.00;99.90
1383;DHT22;685;47.196;11.880;2023-04-25T09:53:34;9.80;99.90
1383;DHT22;685;47.196;11.880;2023-04-25T09:56:05;9.70;99.90
1383;DHT22;685;47.196;11.880;2023-04-25T09:58:33;9.90;99.90
1383;DHT22;685;47.196;11.880;2023-04-25T10:01:02;10.00;99.90
1383;DHT22;685;47.196;11.880;2023-04-25T10:03:30;10.20;99.90
1383;DHT22;685;47.196;11.880;2023-04-25T10:05:59;10.20;99.90
1383;DHT22;685;47.196;11.880;2023-04-25T10:08:31;10.20;99.90
1383;DHT22;685;47.196;11.880;2023-04-25T10:11:00;10.60;99.90
1383;DHT22;685;47.196;11.880;2023-04-25T10:13:29;10.70;99.90
1383;DHT22;685;47.196;11.880;2023-04-25T10:15:57;10.80;99.90
1383;DHT22;685;47.196;11.880;2023-04-25T10:18:25;10.90;99.90
1383;DHT22;685;47.196;11.880;2023-04-25T10:20:53;10.90;99.90
1383;DHT22;685;47.196;11.880;2023-04-25T10:23:20;10.90;99.90
1383;DHT22;685;47.196;11.880;2023-04-25T10:25:48;10.80;99.90
1383;DHT22;685;47.196;11.880;2023-04-25T10:28:15;10.90;99.90
1383;DHT22;685;47.196;11.880;2023-04-25T10:30:59;11.00;99.90
1383;DHT22;685;47.196;11.880;2023-04-25T10:33:32;11.10;99.90
1383;DHT22;685;47.196;11.880;2023-04-25T10:36:08;11.10;99.90
1383;DHT22;685;47.196;11.880;2023-04-25T10:38:36;11.10;99.90
1383;DHT22;685;47.196;11.880;2023-04-25T10:41:03;11.10;99.90
1383;DHT22;685;47.196;11.880;2023-04-25T10:43:36;11.00;99.90
1383;DHT22;685;47.196;11.880;2023-04-25T10:46:15;11.00;99.90
1383;DHT22;685;47.196;11.880;2023-04-25T10:48:47;11.00;99.90
1383;DHT22;685;47.196;11.880;2023-04-25T10:51:19;11.10;99.90
1383;DHT22;685;47.196;11.880;2023-04-25T10:53:47;11.00;99.90
1383;DHT22;685;47.196;11.880;2023-04-25T10:56:25;11.10;99.90
1383;DHT22;685;47.196;11.880;2023-04-25T10:58:52;11.20;99.90
1383;DHT22;685;47.196;11.880;2023-04-25T11:01:36;11.20;99.90
1383;DHT22;685;47.196;11.880;2023-04-25T11:04:03;11.30;99.90
1383;DHT22;685;47.196;11.880;2023-04-25T11:06:37;11.50;99.90
1383;DHT22;685;47.196;11.880;2023-04-25T11:09:11;11.70;99.90
1383;DHT22;685;47.196;11.880;2023-04-25T11:11:39;11.90;99.90
1383;DHT22;685;47.196;11.880;2023-04-25T11:14:06;11.90;99.90
1383;DHT22;685;47.196;11.880;2023-04-25T11:16:34;11.80;99.90
1383;DHT22;685;47.196;11.880;2023-04-25T11:19:01;12.00;99.90
1383;DHT22;685;47.196;11.880;2023-04-25T11:21:29;12.10;99.90
1383;DHT22;685;47.196;11.880;2023-04-25T11:23:57;11.90;99.90
1383;DHT22;685;47.196;11.880;2023-04-25T11:26:24;12.20;99.90
1383;DHT22;685;47.196;11.880;2023-04-25T11:28:51;12.40;99.90
1383;DHT22;685;47.196;11.880;2023-04-25T11:31:20;12.40;99.90
1383;DHT22;685;47.196;11.880;2023-04-25T11:33:49;12.50;99.90
1383;DHT22;685;47.196;11.880;2023-04-25T11:36:17;12.40;99.90
1383;DHT22;685;47.196;11.880;2023-04-25T11:38:44;12.30;99.90
1383;DHT22;685;47.196;11.880;2023-04-25T11:41:11;12.40;99.90
1383;DHT22;685;47.196;11.880;2023-04-25T11:43:38;12.40;99.90
1383;DHT22;685;47.196;11.880;2023-04-25T11:46:07;12.40;99.90
1383;DHT22;685;47.196;11.880;2023-04-25T11:48:37;12.20;99.90
1383;DHT22;685;47.196;11.880;2023-04-25T11:51:06;12.20;99.90
1383;DHT22;685;47.196;11.880;2023-04-25T11:53:33;12.10;99.90
1383;DHT22;685;47.196;11.880;2023-04-25T11:56:00;12.10;99.90
1383;DHT22;685;47.196;11.880;2023-04-25T11:58:27;12.20;99.90
1383;DHT22;685;47.196;11.880;2023-04-25T12:00:54;12.10;99.90
1383;DHT22;685;47.196;11.880;2023-04-25T12:03:24;12.20;99.90
1383;DHT22;685;47.196;11.880;2023-04-25T12:05:52;12.30;99.90
1383;DHT22;685;47.196;11.880;2023-04-25T12:08:21;12.30;99.90
1383;DHT22;685;47.196;11.880;2023-04-25T12:10:48;12.30;99.90
1383;DHT22;685;47.196;11.880;2023-04-25T12:13:20;12.30;99.90
1383;DHT22;685;47.196;11.880;2023-04-25T12:15:47;12.30;99.90
1383;DHT22;685;47.196;11.880;2023-04-25T12:18:14;12.40;99.90
1383;DHT22;685;47.196;11.880;2023-04-25T12:20:42;12.40;99.90
1383;DHT22;685;47.196;11.880;2023-04-25T12:23:09;12.40;99.90
1383;DHT22;685;47.196;11.880;2023-04-25T12:25:39;12.30;99.90
1383;DHT22;685;47.196;11.880;2023-04-25T12:28:11;12.20;99.90
1383;DHT22;685;47.196;11.880;2023-04-25T12:30:58;12.10;99.90
1383;DHT22;685;47.196;11.880;2023-04-25T12:33:27;11.90;99.90
1383;DHT22;685;47.196;11.880;2023-04-25T12:35:54;11.70;99.90
1383;DHT22;685;47.196;11.880;2023-04-25T12:38:26;11.60;99.90
1383;DHT22;685;47.196;11.880;2023-04-25T12:40:56;11.50;99.90
1383;DHT22;685;47.196;11.880;2023-04-25T12:43:23;11.40;99.90
1383;DHT22;685;47.196;11.880;2023-04-25T12:45:51;11.30;99.90
1383;DHT22;685;47.196;11.880;2023-04-25T12:48:19;11.20;99.90
1383;DHT22;685;47.196;11.880;2023-04-25T12:50:46;11.10;99.90
1383;DHT22;685;47.196;11.880;2023-04-25T12:53:14;10.80;99.90
1383;DHT22;685;47.196;11.880;2023-04-25T12:55:41;10.70;99.90
1383;DHT22;685;47.196;11.880;2023-04-25T12:58:09;9.50;99.90
1383;DHT22;685;47.196;11.880;2023-04-25T13:00:36;9.60;99.90
1383;DHT22;685;47.196;11.880;2023-04-25T13:03:03;9.10;99.90
1383;DHT22;685;47.196;11.880;2023-04-25T13:05:31;9.10;99.90
1383;DHT22;685;47.196;11.880;2023-04-25T13:07:58;9.60;99.90
1383;DHT22;685;47.196;11.880;2023-04-25T13:10:24;9.50;99.90
1383;DHT22;685;47.196;11.880;2023-04-25T13:12:51;9.00;99.90
1383;DHT22;685;47.196;11.880;2023-04-25T13:15:20;9.30;99.90
1383;DHT22;685;47.196;11.880;2023-04-25T13:17:47;9.60;99.90
1383;DHT22;685;47.196;11.880;2023-04-25T13:20:14;9.80;99.90
1383;DHT22;685;47.196;11.880;2023-04-25T13:22:42;10.20;99.90
1383;DHT22;685;47.196;11.880;2023-04-25T13:25:11;10.30;99.90
1383;DHT22;685;47.196;11.880;2023-04-25T13:27:38;10.50;99.90
1383;DHT22;685;47.196;11.880;2023-04-25T13:30:07;10.50;99.90
1383;DHT22;685;47.196;11.880;2023-04-25T13:32:36;10.70;99.90
1383;DHT22;685;47.196;11.880;2023-04-25T13:35:04;10.80;99.90
1383;DHT22;685;47.196;11.880;2023-04-25T13:37:31;10.90;99.90
1383;DHT22;685;47.196;11.880;2023-04-25T13:39:59;10.90;99.90
1383;DHT22;685;47.196;11.880;2023-04-25T13:42:27;11.00;99.90
1383;DHT22;685;47.196;11.880;2023-04-25T13:44:55;11.00;99.90
1383;DHT22;685;47.196;11.880;2023-04-25T13:47:22;11.00;99.90
1383;DHT22;685;47.196;11.880;2023-04-25T13:49:51;10.80;99.90
1383;DHT22;685;47.196;11.880;2023-04-25T13:52:18;10.80;99.90
1383;DHT22;685;47.196;11.880;2023-04-25T13:54:45;11.00;99.90
1383;DHT22;685;47.196;11.880;2023-04-25T13:57:12;11.10;99.90
1383;DHT22;685;47.196;11.880;2023-04-25T13:59:39;11.10;99.90
1383;DHT22;685;47.196;11.880;2023-04-25T14:02:07;11.10;99.90
1383;DHT22;685;47.196;11.880;2023-04-25T14:04:33;10.90;99.90
1383;DHT22;685;47.196;11.880;2023-04-25T14:07:02;10.50;99.90
1383;DHT22;685;47.196;11.880;2023-04-25T14:09:30;10.50;99.90
1383;DHT22;685;47.196;11.880;2023-04-25T14:11:57;10.70;99.90
1383;DHT22;685;47.196;11.880;2023-04-25T14:14:24;10.80;99.90
1383;DHT22;685;47.196;11.880;2023-04-25T14:16:51;11.00;99.90
1383;DHT22;685;47.196;11.880;2023-04-25T14:19:19;11.00;99.90
1383;DHT22;685;47.196;11.880;2023-04-25T14:21:46;11.00;99.90
1383;DHT22;685;47.196;11.880;2023-04-25T14:24:15;11.10;99.90
1383;DHT22;685;47.196;11.880;2023-04-25T14:26:42;11.10;99.90
1383;DHT22;685;47.196;11.880;2023-04-25T14:29:09;11.20;99.90
1383;DHT22;685;47.196;11.880;2023-04-25T14:31:37;11.50;99.90
1383;DHT22;685;47.196;11.880;2023-04-25T14:34:05;11.60;99.90
1383;DHT22;685;47.196;11.880;2023-04-25T14:36:32;11.60;99.90
1383;DHT22;685;47.196;11.880;2023-04-25T14:38:59;11.60;99.90
1383;DHT22;685;47.196;11.880;2023-04-25T14:41:28;11.60;99.90
1383;DHT22;685;47.196;11.880;2023-04-25T14:43:55;11.40;99.90
1383;DHT22;685;47.196;11.880;2023-04-25T14:46:22;11.10;99.90
1383;DHT22;685;47.196;11.880;2023-04-25T14:48:49;10.60;99.90
1383;DHT22;685;47.196;11.880;2023-04-25T14:51:16;10.70;99.90
1383;DHT22;685;47.196;11.880;2023-04-25T14:53:43;10.60;99.90
1383;DHT22;685;47.196;11.880;2023-04-25T14:56:10;9.90;99.90
1383;DHT22;685;47.196;11.880;2023-04-25T14:58:39;9.40;99.90
1383;DHT22;685;47.196;11.880;2023-04-25T15:01:06;9.00;99.90
1383;DHT22;685;47.196;11.880;2023-04-25T15:03:33;8.50;99.90
1383;DHT22;685;47.196;11.880;2023-04-25T15:06:00;8.40;99.90
1383;DHT22;685;47.196;11.880;2023-04-25T15:08:27;8.30;99.90
1383;DHT22;685;47.196;11.880;2023-04-25T15:10:54;8.40;99.90
1383;DHT22;685;47.196;11.880;2023-04-25T15:13:21;8.40;99.90
1383;DHT22;685;47.196;11.880;2023-04-25T15:15:49;8.50;99.90
1383;DHT22;685;47.196;11.880;2023-04-25T15:18:20;8.90;99.90
1383;DHT22;685;47.196;11.880;2023-04-25T15:20:49;8.80;99.90
1383;DHT22;685;47.196;11.880;2023-04-25T15:23:16;9.10;99.90
1383;DHT22;685;47.196;11.880;2023-04-25T15:25:43;9.20;99.90
1383;DHT22;685;47.196;11.880;2023-04-25T15:28:10;9.30;99.90
1383;DHT22;685;47.196;11.880;2023-04-25T15:30:37;9.20;99.90
1383;DHT22;685;47.196;11.880;2023-04-25T15:33:05;9.00;99.90
1383;DHT22;685;47.196;11.880;2023-04-25T15:35:32;9.00;99.90
1383;DHT22;685;47.196;11.880;2023-04-25T15:37:59;8.90;99.90
1383;DHT22;685;47.196;11.880;2023-04-25T15:40:26;8.70;99.90
1383;DHT22;685;47.196;11.880;2023-04-25T15:42:53;8.50;99.90
1383;DHT22;685;47.196;11.880;2023-04-25T15:45:22;8.60;99.90
1383;DHT22;685;47.196;11.880;2023-04-25T15:47:50;8.50;99.90
1383;DHT22;685;47.196;11.880;2023-04-25T15:50:20;8.30;99.90
1383;DHT22;685;47.196;11.880;2023-04-25T15:52:48;8.30;99.90
1383;DHT22;685;47.196;11.880;2023-04-25T15:55:15;8.20;99.90
1383;DHT22;685;47.196;11.880;2023-04-25T15:57:42;7.70;99.90
1383;DHT22;685;47.196;11.880;2023-04-25T16:00:10;7.50;99.90
1383;DHT22;685;47.196;11.880;2023-04-25T16:02:38;7.50;99.90
1383;DHT22;685;47.196;11.880;2023-04-25T16:05:05;7.50;99.90
1383;DHT22;685;47.196;11.880;2023-04-25T16:07:34;7.40;99.90
1383;DHT22;685;47.196;11.880;2023-04-25T16:10:01;7.60;99.90
1383;DHT22;685;47.196;11.880;2023-04-25T16:12:29;7.50;99.90
1383;DHT22;685;47.196;11.880;2023-04-25T16:14:56;7.50;99.90